sensor_id;sensor_type;location;lat;lon;timestamp;P1;durP1;ratioP1;P2;durP2;ratioP2
39370;SDS011;25099;51.946;4.838;2024-02-26T00:00:34;4.95;;;3.20;;
39370;SDS011;25099;51.946;4.838;2024-02-26T00:03:00;2.75;;;2.55;;
39370;SDS011;25099;51.946;4.838;2024-02-26T00:05:25;6.00;;;3.35;;
39370;SDS011;25099;51.946;4.838;2024-02-26T00:07:51;5.05;;;3.45;;
39370;SDS011;25099;51.946;4.838;2024-02-26T00:10:17;3.33;;;3.03;;
39370;SDS011;25099;51.946;4.838;2024-02-26T00:12:42;5.47;;;3.60;;
39370;SDS011;25099;51.946;4.838;2024-02-26T00:15:08;5.78;;;3.40;;
39370;SDS011;25099;51.946;4.838;2024-02-26T00:17:35;4.10;;;3.08;;
39370;SDS011;25099;51.946;4.838;2024-02-26T00:20:01;3.13;;;2.80;;
39370;SDS011;25099;51.946;4.838;2024-02-26T00:22:33;3.47;;;3.17;;
39370;SDS011;25099;51.946;4.838;2024-02-26T00:24:58;4.68;;;3.35;;
39370;SDS011;25099;51.946;4.838;2024-02-26T00:27:24;3.63;;;2.60;;
39370;SDS011;25099;51.946;4.838;2024-02-26T00:29:50;3.05;;;2.72;;
39370;SDS011;25099;51.946;4.838;2024-02-26T00:32:15;3.55;;;2.67;;
39370;SDS011;25099;51.946;4.838;2024-02-26T00:34:41;7.00;;;3.17;;
39370;SDS011;25099;51.946;4.838;2024-02-26T00:37:06;3.30;;;3.00;;
39370;SDS011;25099;51.946;4.838;2024-02-26T00:39:32;3.53;;;3.28;;
39370;SDS011;25099;51.946;4.838;2024-02-26T00:41:57;5.88;;;3.50;;
39370;SDS011;25099;51.946;4.838;2024-02-26T00:44:23;5.15;;;2.85;;
39370;SDS011;25099;51.946;4.838;2024-02-26T00:46:49;4.28;;;3.30;;
39370;SDS011;25099;51.946;4.838;2024-02-26T00:49:14;3.60;;;3.30;;
39370;SDS011;25099;51.946;4.838;2024-02-26T00:51:40;3.55;;;3.25;;
39370;SDS011;25099;51.946;4.838;2024-02-26T00:54:05;4.90;;;3.10;;
39370;SDS011;25099;51.946;4.838;2024-02-26T00:56:31;9.60;;;3.45;;
39370;SDS011;25099;51.946;4.838;2024-02-26T00:58:56;3.13;;;2.83;;
39370;SDS011;25099;51.946;4.838;2024-02-26T01:01:22;4.30;;;3.22;;
39370;SDS011;25099;51.946;4.838;2024-02-26T01:03:47;4.15;;;3.08;;
39370;SDS011;25099;51.946;4.838;2024-02-26T01:06:13;3.75;;;3.20;;
39370;SDS011;25099;51.946;4.838;2024-02-26T01:08:38;4.35;;;2.90;;
39370;SDS011;25099;51.946;4.838;2024-02-26T01:11:04;7.53;;;3.05;;
39370;SDS011;25099;51.946;4.838;2024-02-26T01:13:30;7.43;;;3.30;;
39370;SDS011;25099;51.946;4.838;2024-02-26T01:15:55;3.00;;;2.78;;
39370;SDS011;25099;51.946;4.838;2024-02-26T01:18:21;3.95;;;2.92;;
39370;SDS011;25099;51.946;4.838;2024-02-26T01:20:47;4.03;;;2.83;;
39370;SDS011;25099;51.946;4.838;2024-02-26T01:23:12;3.13;;;2.92;;
39370;SDS011;25099;51.946;4.838;2024-02-26T01:25:38;3.08;;;2.83;;
39370;SDS011;25099;51.946;4.838;2024-02-26T01:28:04;6.53;;;3.20;;
39370;SDS011;25099;51.946;4.838;2024-02-26T01:30:30;3.55;;;3.00;;
39370;SDS011;25099;51.946;4.838;2024-02-26T01:32:56;5.30;;;3.00;;
39370;SDS011;25099;51.946;4.838;2024-02-26T01:35:22;6.80;;;3.17;;
39370;SDS011;25099;51.946;4.838;2024-02-26T01:37:47;3.28;;;2.92;;
39370;SDS011;25099;51.946;4.838;2024-02-26T01:40:13;3.10;;;2.80;;
39370;SDS011;25099;51.946;4.838;2024-02-26T01:42:44;4.50;;;3.78;;
39370;SDS011;25099;51.946;4.838;2024-02-26T01:45:12;4.18;;;3.65;;
39370;SDS011;25099;51.946;4.838;2024-02-26T01:47:45;5.25;;;3.08;;
39370;SDS011;25099;51.946;4.838;2024-02-26T01:50:11;3.65;;;3.13;;
39370;SDS011;25099;51.946;4.838;2024-02-26T01:52:37;3.72;;;3.38;;
39370;SDS011;25099;51.946;4.838;2024-02-26T01:55:03;3.65;;;3.35;;
39370;SDS011;25099;51.946;4.838;2024-02-26T01:57:28;4.13;;;3.35;;
39370;SDS011;25099;51.946;4.838;2024-02-26T01:59:54;4.63;;;3.75;;
39370;SDS011;25099;51.946;4.838;2024-02-26T02:02:20;4.40;;;3.90;;
39370;SDS011;25099;51.946;4.838;2024-02-26T02:04:46;3.85;;;3.55;;
39370;SDS011;25099;51.946;4.838;2024-02-26T02:07:11;4.57;;;4.13;;
39370;SDS011;25099;51.946;4.838;2024-02-26T02:09:37;3.42;;;3.10;;
39370;SDS011;25099;51.946;4.838;2024-02-26T02:12:03;3.65;;;3.15;;
39370;SDS011;25099;51.946;4.838;2024-02-26T02:14:30;4.80;;;3.78;;
39370;SDS011;25099;51.946;4.838;2024-02-26T02:16:55;3.83;;;3.53;;
39370;SDS011;25099;51.946;4.838;2024-02-26T02:19:21;5.50;;;3.50;;
39370;SDS011;25099;51.946;4.838;2024-02-26T02:21:46;6.28;;;4.28;;
39370;SDS011;25099;51.946;4.838;2024-02-26T02:24:12;4.13;;;3.72;;
39370;SDS011;25099;51.946;4.838;2024-02-26T02:26:37;4.93;;;3.92;;
39370;SDS011;25099;51.946;4.838;2024-02-26T02:29:05;4.25;;;3.85;;
39370;SDS011;25099;51.946;4.838;2024-02-26T02:31:32;4.10;;;3.70;;
39370;SDS011;25099;51.946;4.838;2024-02-26T02:33:58;5.53;;;4.15;;
39370;SDS011;25099;51.946;4.838;2024-02-26T02:36:24;4.15;;;3.75;;
39370;SDS011;25099;51.946;4.838;2024-02-26T02:38:50;4.78;;;4.03;;
39370;SDS011;25099;51.946;4.838;2024-02-26T02:41:16;6.68;;;3.47;;
39370;SDS011;25099;51.946;4.838;2024-02-26T02:43:42;4.00;;;3.60;;
39370;SDS011;25099;51.946;4.838;2024-02-26T02:46:07;4.35;;;4.03;;
39370;SDS011;25099;51.946;4.838;2024-02-26T02:48:33;4.28;;;3.90;;
39370;SDS011;25099;51.946;4.838;2024-02-26T02:50:58;4.30;;;3.90;;
39370;SDS011;25099;51.946;4.838;2024-02-26T02:53:24;3.55;;;3.25;;
39370;SDS011;25099;51.946;4.838;2024-02-26T02:55:49;3.70;;;3.38;;
39370;SDS011;25099;51.946;4.838;2024-02-26T02:58:15;5.97;;;3.63;;
39370;SDS011;25099;51.946;4.838;2024-02-26T03:00:41;4.10;;;3.72;;
39370;SDS011;25099;51.946;4.838;2024-02-26T03:03:06;4.32;;;3.92;;
39370;SDS011;25099;51.946;4.838;2024-02-26T03:05:32;5.70;;;3.92;;
39370;SDS011;25099;51.946;4.838;2024-02-26T03:07:57;4.18;;;3.78;;
39370;SDS011;25099;51.946;4.838;2024-02-26T03:10:23;4.03;;;3.72;;
39370;SDS011;25099;51.946;4.838;2024-02-26T03:12:49;5.65;;;4.13;;
39370;SDS011;25099;51.946;4.838;2024-02-26T03:15:15;4.18;;;3.78;;
39370;SDS011;25099;51.946;4.838;2024-02-26T03:17:40;4.72;;;4.13;;
39370;SDS011;25099;51.946;4.838;2024-02-26T03:20:06;4.15;;;3.72;;
39370;SDS011;25099;51.946;4.838;2024-02-26T03:22:34;4.35;;;3.97;;
39370;SDS011;25099;51.946;4.838;2024-02-26T03:25:00;4.28;;;3.90;;
39370;SDS011;25099;51.946;4.838;2024-02-26T03:27:26;5.40;;;4.10;;
39370;SDS011;25099;51.946;4.838;2024-02-26T03:29:51;4.35;;;3.95;;
39370;SDS011;25099;51.946;4.838;2024-02-26T03:32:17;5.53;;;4.28;;
39370;SDS011;25099;51.946;4.838;2024-02-26T03:34:43;5.10;;;4.40;;
39370;SDS011;25099;51.946;4.838;2024-02-26T03:37:09;4.78;;;4.38;;
39370;SDS011;25099;51.946;4.838;2024-02-26T03:39:35;5.13;;;4.65;;
39370;SDS011;25099;51.946;4.838;2024-02-26T03:42:01;5.00;;;4.50;;
39370;SDS011;25099;51.946;4.838;2024-02-26T03:44:27;4.28;;;3.88;;
39370;SDS011;25099;51.946;4.838;2024-02-26T03:46:53;5.22;;;4.35;;
39370;SDS011;25099;51.946;4.838;2024-02-26T03:49:19;4.90;;;4.32;;
39370;SDS011;25099;51.946;4.838;2024-02-26T03:51:45;5.65;;;5.05;;
39370;SDS011;25099;51.946;4.838;2024-02-26T03:54:10;6.53;;;4.88;;
39370;SDS011;25099;51.946;4.838;2024-02-26T03:56:36;5.05;;;4.47;;
39370;SDS011;25099;51.946;4.838;2024-02-26T03:59:02;5.40;;;4.90;;
39370;SDS011;25099;51.946;4.838;2024-02-26T04:01:27;6.10;;;5.50;;
39370;SDS011;25099;51.946;4.838;2024-02-26T04:03:53;5.53;;;5.03;;
39370;SDS011;25099;51.946;4.838;2024-02-26T04:06:19;5.45;;;4.95;;
39370;SDS011;25099;51.946;4.838;2024-02-26T04:08:46;7.47;;;4.97;;
39370;SDS011;25099;51.946;4.838;2024-02-26T04:11:12;7.18;;;5.78;;
39370;SDS011;25099;51.946;4.838;2024-02-26T04:13:38;6.65;;;6.05;;
39370;SDS011;25099;51.946;4.838;2024-02-26T04:16:04;9.30;;;6.65;;
39370;SDS011;25099;51.946;4.838;2024-02-26T04:18:31;6.57;;;5.90;;
39370;SDS011;25099;51.946;4.838;2024-02-26T04:20:57;9.82;;;6.45;;
39370;SDS011;25099;51.946;4.838;2024-02-26T04:23:23;6.95;;;6.28;;
39370;SDS011;25099;51.946;4.838;2024-02-26T04:25:48;7.63;;;6.22;;
39370;SDS011;25099;51.946;4.838;2024-02-26T04:28:14;7.32;;;6.63;;
39370;SDS011;25099;51.946;4.838;2024-02-26T04:30:39;7.95;;;6.63;;
39370;SDS011;25099;51.946;4.838;2024-02-26T04:33:05;8.68;;;7.45;;
39370;SDS011;25099;51.946;4.838;2024-02-26T04:35:31;7.72;;;6.85;;
39370;SDS011;25099;51.946;4.838;2024-02-26T04:37:56;8.48;;;5.68;;
39370;SDS011;25099;51.946;4.838;2024-02-26T04:40:22;7.10;;;6.40;;
39370;SDS011;25099;51.946;4.838;2024-02-26T04:42:48;8.05;;;6.22;;
39370;SDS011;25099;51.946;4.838;2024-02-26T04:45:14;7.53;;;6.82;;
39370;SDS011;25099;51.946;4.838;2024-02-26T04:47:40;10.20;;;7.25;;
39370;SDS011;25099;51.946;4.838;2024-02-26T04:50:05;8.68;;;6.75;;
39370;SDS011;25099;51.946;4.838;2024-02-26T04:52:31;7.90;;;7.10;;
39370;SDS011;25099;51.946;4.838;2024-02-26T04:54:57;10.38;;;7.70;;
39370;SDS011;25099;51.946;4.838;2024-02-26T04:57:24;8.25;;;6.97;;
39370;SDS011;25099;51.946;4.838;2024-02-26T04:59:51;9.05;;;7.22;;
39370;SDS011;25099;51.946;4.838;2024-02-26T05:02:17;8.45;;;7.22;;
39370;SDS011;25099;51.946;4.838;2024-02-26T05:04:43;8.32;;;7.45;;
39370;SDS011;25099;51.946;4.838;2024-02-26T05:07:08;11.00;;;7.28;;
39370;SDS011;25099;51.946;4.838;2024-02-26T05:09:34;11.75;;;6.90;;
39370;SDS011;25099;51.946;4.838;2024-02-26T05:11:59;10.00;;;7.45;;
39370;SDS011;25099;51.946;4.838;2024-02-26T05:14:25;8.02;;;7.22;;
39370;SDS011;25099;51.946;4.838;2024-02-26T05:16:51;9.73;;;7.38;;
39370;SDS011;25099;51.946;4.838;2024-02-26T05:19:16;8.35;;;7.10;;
39370;SDS011;25099;51.946;4.838;2024-02-26T05:21:42;10.38;;;7.35;;
39370;SDS011;25099;51.946;4.838;2024-02-26T05:24:09;7.22;;;6.53;;
39370;SDS011;25099;51.946;4.838;2024-02-26T05:26:35;8.65;;;7.22;;
39370;SDS011;25099;51.946;4.838;2024-02-26T05:29:01;12.90;;;9.60;;
39370;SDS011;25099;51.946;4.838;2024-02-26T05:31:26;9.80;;;7.53;;
39370;SDS011;25099;51.946;4.838;2024-02-26T05:33:53;10.10;;;7.65;;
39370;SDS011;25099;51.946;4.838;2024-02-26T05:36:20;9.00;;;8.10;;
39370;SDS011;25099;51.946;4.838;2024-02-26T05:38:47;13.38;;;7.53;;
39370;SDS011;25099;51.946;4.838;2024-02-26T05:41:14;10.05;;;8.65;;
39370;SDS011;25099;51.946;4.838;2024-02-26T05:43:50;12.02;;;9.35;;
39370;SDS011;25099;51.946;4.838;2024-02-26T05:46:19;9.32;;;8.30;;
39370;SDS011;25099;51.946;4.838;2024-02-26T05:48:54;9.77;;;8.20;;
39370;SDS011;25099;51.946;4.838;2024-02-26T05:51:20;8.93;;;8.02;;
39370;SDS011;25099;51.946;4.838;2024-02-26T05:53:45;10.13;;;9.07;;
39370;SDS011;25099;51.946;4.838;2024-02-26T05:56:18;10.50;;;8.32;;
39370;SDS011;25099;51.946;4.838;2024-02-26T05:58:45;10.32;;;8.63;;
39370;SDS011;25099;51.946;4.838;2024-02-26T06:01:10;9.68;;;8.75;;
39370;SDS011;25099;51.946;4.838;2024-02-26T06:03:36;12.05;;;8.23;;
39370;SDS011;25099;51.946;4.838;2024-02-26T06:06:01;10.27;;;8.30;;
39370;SDS011;25099;51.946;4.838;2024-02-26T06:08:27;8.82;;;7.70;;
39370;SDS011;25099;51.946;4.838;2024-02-26T06:10:52;9.43;;;8.15;;
39370;SDS011;25099;51.946;4.838;2024-02-26T06:13:18;10.43;;;7.80;;
39370;SDS011;25099;51.946;4.838;2024-02-26T06:15:43;9.38;;;8.15;;
39370;SDS011;25099;51.946;4.838;2024-02-26T06:18:09;8.60;;;7.80;;
39370;SDS011;25099;51.946;4.838;2024-02-26T06:20:34;8.60;;;7.22;;
39370;SDS011;25099;51.946;4.838;2024-02-26T06:23:00;8.93;;;8.02;;
39370;SDS011;25099;51.946;4.838;2024-02-26T06:25:25;9.35;;;8.45;;
39370;SDS011;25099;51.946;4.838;2024-02-26T06:27:51;10.38;;;8.25;;
39370;SDS011;25099;51.946;4.838;2024-02-26T06:30:16;12.38;;;9.10;;
39370;SDS011;25099;51.946;4.838;2024-02-26T06:32:42;9.82;;;8.48;;
39370;SDS011;25099;51.946;4.838;2024-02-26T06:35:08;10.95;;;9.45;;
39370;SDS011;25099;51.946;4.838;2024-02-26T06:37:36;10.20;;;8.63;;
39370;SDS011;25099;51.946;4.838;2024-02-26T06:40:02;11.32;;;9.45;;
39370;SDS011;25099;51.946;4.838;2024-02-26T06:42:34;12.70;;;9.55;;
39370;SDS011;25099;51.946;4.838;2024-02-26T06:45:00;16.88;;;9.63;;
39370;SDS011;25099;51.946;4.838;2024-02-26T06:47:26;14.25;;;11.60;;
39370;SDS011;25099;51.946;4.838;2024-02-26T06:49:51;13.10;;;9.55;;
39370;SDS011;25099;51.946;4.838;2024-02-26T06:52:17;13.50;;;9.88;;
39370;SDS011;25099;51.946;4.838;2024-02-26T06:54:42;15.88;;;10.77;;
39370;SDS011;25099;51.946;4.838;2024-02-26T06:57:09;14.05;;;10.05;;
39370;SDS011;25099;51.946;4.838;2024-02-26T06:59:35;15.65;;;11.00;;
39370;SDS011;25099;51.946;4.838;2024-02-26T07:02:00;15.18;;;11.10;;
39370;SDS011;25099;51.946;4.838;2024-02-26T07:04:26;13.25;;;10.02;;
39370;SDS011;25099;51.946;4.838;2024-02-26T07:06:51;17.55;;;12.00;;
39370;SDS011;25099;51.946;4.838;2024-02-26T07:09:17;15.13;;;11.18;;
39370;SDS011;25099;51.946;4.838;2024-02-26T07:11:42;15.75;;;11.43;;
39370;SDS011;25099;51.946;4.838;2024-02-26T07:14:08;18.00;;;11.88;;
39370;SDS011;25099;51.946;4.838;2024-02-26T07:16:34;16.88;;;11.95;;
39370;SDS011;25099;51.946;4.838;2024-02-26T07:19:00;17.40;;;11.43;;
39370;SDS011;25099;51.946;4.838;2024-02-26T07:21:26;19.83;;;12.13;;
39370;SDS011;25099;51.946;4.838;2024-02-26T07:23:51;18.77;;;12.50;;
39370;SDS011;25099;51.946;4.838;2024-02-26T07:26:17;23.08;;;12.77;;
39370;SDS011;25099;51.946;4.838;2024-02-26T07:28:44;21.40;;;13.52;;
39370;SDS011;25099;51.946;4.838;2024-02-26T07:31:10;20.42;;;13.52;;
39370;SDS011;25099;51.946;4.838;2024-02-26T07:33:35;22.05;;;13.45;;
39370;SDS011;25099;51.946;4.838;2024-02-26T07:36:01;23.67;;;15.15;;
39370;SDS011;25099;51.946;4.838;2024-02-26T07:38:27;25.42;;;15.55;;
39370;SDS011;25099;51.946;4.838;2024-02-26T07:40:52;24.95;;;16.60;;
39370;SDS011;25099;51.946;4.838;2024-02-26T07:43:18;23.48;;;15.55;;
39370;SDS011;25099;51.946;4.838;2024-02-26T07:45:43;23.58;;;16.15;;
39370;SDS011;25099;51.946;4.838;2024-02-26T07:48:09;27.65;;;17.45;;
39370;SDS011;25099;51.946;4.838;2024-02-26T07:50:35;31.95;;;18.60;;
39370;SDS011;25099;51.946;4.838;2024-02-26T07:53:01;31.38;;;18.48;;
39370;SDS011;25099;51.946;4.838;2024-02-26T07:55:26;28.02;;;18.92;;
39370;SDS011;25099;51.946;4.838;2024-02-26T07:57:52;28.25;;;19.23;;
39370;SDS011;25099;51.946;4.838;2024-02-26T08:00:18;30.25;;;19.50;;
39370;SDS011;25099;51.946;4.838;2024-02-26T08:02:44;28.13;;;18.02;;
39370;SDS011;25099;51.946;4.838;2024-02-26T08:05:09;25.63;;;18.30;;
39370;SDS011;25099;51.946;4.838;2024-02-26T08:07:35;27.10;;;18.38;;
39370;SDS011;25099;51.946;4.838;2024-02-26T08:10:03;29.85;;;18.83;;
39370;SDS011;25099;51.946;4.838;2024-02-26T08:12:29;32.42;;;19.38;;
39370;SDS011;25099;51.946;4.838;2024-02-26T08:14:54;27.38;;;18.35;;
39370;SDS011;25099;51.946;4.838;2024-02-26T08:17:20;28.02;;;19.13;;
39370;SDS011;25099;51.946;4.838;2024-02-26T08:19:46;27.13;;;18.50;;
39370;SDS011;25099;51.946;4.838;2024-02-26T08:22:11;25.35;;;17.90;;
39370;SDS011;25099;51.946;4.838;2024-02-26T08:24:41;24.65;;;17.20;;
39370;SDS011;25099;51.946;4.838;2024-02-26T08:27:07;23.55;;;16.77;;
39370;SDS011;25099;51.946;4.838;2024-02-26T08:29:32;21.08;;;16.33;;
39370;SDS011;25099;51.946;4.838;2024-02-26T08:31:58;24.60;;;16.83;;
39370;SDS011;25099;51.946;4.838;2024-02-26T08:34:24;20.88;;;16.10;;
39370;SDS011;25099;51.946;4.838;2024-02-26T08:36:50;21.90;;;15.20;;
39370;SDS011;25099;51.946;4.838;2024-02-26T08:39:16;22.08;;;16.05;;
39370;SDS011;25099;51.946;4.838;2024-02-26T08:41:42;18.77;;;14.88;;
39370;SDS011;25099;51.946;4.838;2024-02-26T08:44:08;20.63;;;14.63;;
39370;SDS011;25099;51.946;4.838;2024-02-26T08:46:34;17.70;;;13.23;;
39370;SDS011;25099;51.946;4.838;2024-02-26T08:49:00;17.38;;;12.55;;
39370;SDS011;25099;51.946;4.838;2024-02-26T08:51:25;19.30;;;12.88;;
39370;SDS011;25099;51.946;4.838;2024-02-26T08:53:51;16.40;;;13.23;;
39370;SDS011;25099;51.946;4.838;2024-02-26T08:56:17;15.98;;;12.27;;
39370;SDS011;25099;51.946;4.838;2024-02-26T08:58:43;18.42;;;11.93;;
39370;SDS011;25099;51.946;4.838;2024-02-26T09:01:09;15.40;;;11.40;;
39370;SDS011;25099;51.946;4.838;2024-02-26T09:03:34;12.65;;;11.30;;
39370;SDS011;25099;51.946;4.838;2024-02-26T09:06:00;14.10;;;11.07;;
39370;SDS011;25099;51.946;4.838;2024-02-26T09:08:27;12.60;;;10.57;;
39370;SDS011;25099;51.946;4.838;2024-02-26T09:10:52;16.15;;;11.30;;
39370;SDS011;25099;51.946;4.838;2024-02-26T09:13:18;14.85;;;10.45;;
39370;SDS011;25099;51.946;4.838;2024-02-26T09:15:43;10.50;;;9.40;;
39370;SDS011;25099;51.946;4.838;2024-02-26T09:18:09;9.57;;;8.57;;
39370;SDS011;25099;51.946;4.838;2024-02-26T09:20:35;10.68;;;9.13;;
39370;SDS011;25099;51.946;4.838;2024-02-26T09:23:01;13.57;;;10.32;;
39370;SDS011;25099;51.946;4.838;2024-02-26T09:25:27;12.38;;;9.95;;
39370;SDS011;25099;51.946;4.838;2024-02-26T09:27:53;12.48;;;9.40;;
39370;SDS011;25099;51.946;4.838;2024-02-26T09:30:18;10.57;;;9.02;;
39370;SDS011;25099;51.946;4.838;2024-02-26T09:32:46;11.15;;;8.73;;
39370;SDS011;25099;51.946;4.838;2024-02-26T09:35:13;13.77;;;9.05;;
39370;SDS011;25099;51.946;4.838;2024-02-26T09:37:39;12.13;;;8.80;;
39370;SDS011;25099;51.946;4.838;2024-02-26T09:40:05;8.35;;;7.55;;
39370;SDS011;25099;51.946;4.838;2024-02-26T09:42:36;9.00;;;8.10;;
39370;SDS011;25099;51.946;4.838;2024-02-26T09:45:07;10.65;;;8.13;;
39370;SDS011;25099;51.946;4.838;2024-02-26T09:47:37;8.25;;;7.40;;
39370;SDS011;25099;51.946;4.838;2024-02-26T09:50:04;9.48;;;8.48;;
39370;SDS011;25099;51.946;4.838;2024-02-26T09:52:34;8.55;;;7.15;;
39370;SDS011;25099;51.946;4.838;2024-02-26T09:55:02;9.25;;;6.45;;
39370;SDS011;25099;51.946;4.838;2024-02-26T09:57:29;7.45;;;6.50;;
39370;SDS011;25099;51.946;4.838;2024-02-26T09:59:55;7.90;;;6.38;;
39370;SDS011;25099;51.946;4.838;2024-02-26T10:02:28;7.85;;;6.70;;
39370;SDS011;25099;51.946;4.838;2024-02-26T10:04:55;9.10;;;6.85;;
39370;SDS011;25099;51.946;4.838;2024-02-26T10:07:26;8.98;;;6.15;;
39370;SDS011;25099;51.946;4.838;2024-02-26T10:09:54;7.00;;;6.10;;
39370;SDS011;25099;51.946;4.838;2024-02-26T10:12:20;6.55;;;5.53;;
39370;SDS011;25099;51.946;4.838;2024-02-26T10:14:48;10.20;;;6.75;;
39370;SDS011;25099;51.946;4.838;2024-02-26T10:17:13;6.72;;;5.70;;
39370;SDS011;25099;51.946;4.838;2024-02-26T10:19:40;9.00;;;5.97;;
39370;SDS011;25099;51.946;4.838;2024-02-26T10:22:05;7.95;;;6.97;;
39370;SDS011;25099;51.946;4.838;2024-02-26T10:24:31;6.70;;;5.90;;
39370;SDS011;25099;51.946;4.838;2024-02-26T10:26:57;6.55;;;5.78;;
39370;SDS011;25099;51.946;4.838;2024-02-26T10:29:26;8.90;;;6.28;;
39370;SDS011;25099;51.946;4.838;2024-02-26T10:31:52;7.68;;;6.25;;
39370;SDS011;25099;51.946;4.838;2024-02-26T10:34:18;6.30;;;5.57;;
39370;SDS011;25099;51.946;4.838;2024-02-26T10:36:44;8.23;;;6.15;;
39370;SDS011;25099;51.946;4.838;2024-02-26T10:39:13;10.18;;;6.85;;
39370;SDS011;25099;51.946;4.838;2024-02-26T10:41:42;7.75;;;6.13;;
39370;SDS011;25099;51.946;4.838;2024-02-26T10:44:09;8.15;;;6.20;;
39370;SDS011;25099;51.946;4.838;2024-02-26T10:46:38;9.10;;;6.57;;
39370;SDS011;25099;51.946;4.838;2024-02-26T10:49:05;12.55;;;8.60;;
39370;SDS011;25099;51.946;4.838;2024-02-26T10:51:37;14.18;;;7.47;;
39370;SDS011;25099;51.946;4.838;2024-02-26T10:54:04;9.63;;;5.82;;
39370;SDS011;25099;51.946;4.838;2024-02-26T10:56:33;8.07;;;6.65;;
39370;SDS011;25099;51.946;4.838;2024-02-26T10:58:59;7.10;;;6.40;;
39370;SDS011;25099;51.946;4.838;2024-02-26T11:01:26;7.85;;;6.30;;
39370;SDS011;25099;51.946;4.838;2024-02-26T11:03:54;7.03;;;6.07;;
39370;SDS011;25099;51.946;4.838;2024-02-26T11:06:21;7.88;;;6.13;;
39370;SDS011;25099;51.946;4.838;2024-02-26T11:08:50;8.45;;;6.97;;
39370;SDS011;25099;51.946;4.838;2024-02-26T11:11:16;8.23;;;7.30;;
39370;SDS011;25099;51.946;4.838;2024-02-26T11:13:43;10.00;;;5.93;;
39370;SDS011;25099;51.946;4.838;2024-02-26T11:16:16;8.55;;;6.25;;
39370;SDS011;25099;51.946;4.838;2024-02-26T11:18:43;6.97;;;6.05;;
39370;SDS011;25099;51.946;4.838;2024-02-26T11:21:11;7.68;;;6.88;;
39370;SDS011;25099;51.946;4.838;2024-02-26T11:23:40;7.68;;;6.85;;
39370;SDS011;25099;51.946;4.838;2024-02-26T11:26:05;7.05;;;6.35;;
39370;SDS011;25099;51.946;4.838;2024-02-26T11:28:33;7.50;;;6.70;;
39370;SDS011;25099;51.946;4.838;2024-02-26T11:31:00;9.27;;;7.05;;
39370;SDS011;25099;51.946;4.838;2024-02-26T11:33:29;7.35;;;6.57;;
39370;SDS011;25099;51.946;4.838;2024-02-26T11:35:55;10.02;;;7.07;;
39370;SDS011;25099;51.946;4.838;2024-02-26T11:38:21;8.25;;;6.90;;
39370;SDS011;25099;51.946;4.838;2024-02-26T11:40:48;8.68;;;6.80;;
39370;SDS011;25099;51.946;4.838;2024-02-26T11:43:15;7.63;;;6.70;;
39370;SDS011;25099;51.946;4.838;2024-02-26T11:48:16;7.95;;;6.15;;
39370;SDS011;25099;51.946;4.838;2024-02-26T11:50:46;11.95;;;6.95;;
39370;SDS011;25099;51.946;4.838;2024-02-26T11:53:22;8.57;;;6.55;;
39370;SDS011;25099;51.946;4.838;2024-02-26T11:58:42;9.70;;;5.95;;
39370;SDS011;25099;51.946;4.838;2024-02-26T12:04:06;8.25;;;6.40;;
39370;SDS011;25099;51.946;4.838;2024-02-26T12:06:40;6.30;;;5.70;;
39370;SDS011;25099;51.946;4.838;2024-02-26T12:09:07;10.27;;;6.95;;
39370;SDS011;25099;51.946;4.838;2024-02-26T12:11:34;6.95;;;6.18;;
39370;SDS011;25099;51.946;4.838;2024-02-26T12:14:03;7.13;;;6.43;;
39370;SDS011;25099;51.946;4.838;2024-02-26T12:16:37;6.00;;;5.45;;
39370;SDS011;25099;51.946;4.838;2024-02-26T12:19:08;8.10;;;6.05;;
39370;SDS011;25099;51.946;4.838;2024-02-26T12:21:35;7.28;;;5.60;;
39370;SDS011;25099;51.946;4.838;2024-02-26T12:24:11;7.18;;;5.82;;
39370;SDS011;25099;51.946;4.838;2024-02-26T12:26:43;10.35;;;6.22;;
39370;SDS011;25099;51.946;4.838;2024-02-26T12:29:08;8.57;;;5.85;;
39370;SDS011;25099;51.946;4.838;2024-02-26T12:31:36;7.13;;;6.43;;
39370;SDS011;25099;51.946;4.838;2024-02-26T12:34:02;6.63;;;5.93;;
39370;SDS011;25099;51.946;4.838;2024-02-26T12:36:29;6.72;;;5.97;;
39370;SDS011;25099;51.946;4.838;2024-02-26T12:38:55;7.28;;;6.55;;
39370;SDS011;25099;51.946;4.838;2024-02-26T12:41:21;6.80;;;5.55;;
39370;SDS011;25099;51.946;4.838;2024-02-26T12:43:47;8.88;;;6.40;;
39370;SDS011;25099;51.946;4.838;2024-02-26T12:46:13;9.15;;;6.43;;
39370;SDS011;25099;51.946;4.838;2024-02-26T12:48:42;5.80;;;5.20;;
39370;SDS011;25099;51.946;4.838;2024-02-26T12:51:08;9.15;;;5.63;;
39370;SDS011;25099;51.946;4.838;2024-02-26T12:53:35;7.05;;;5.65;;
39370;SDS011;25099;51.946;4.838;2024-02-26T12:56:01;7.18;;;5.57;;
39370;SDS011;25099;51.946;4.838;2024-02-26T12:58:28;7.25;;;5.55;;
39370;SDS011;25099;51.946;4.838;2024-02-26T13:00:56;5.45;;;4.93;;
39370;SDS011;25099;51.946;4.838;2024-02-26T13:03:22;6.82;;;5.60;;
39370;SDS011;25099;51.946;4.838;2024-02-26T13:05:48;6.40;;;5.53;;
39370;SDS011;25099;51.946;4.838;2024-02-26T13:08:19;7.65;;;5.78;;
39370;SDS011;25099;51.946;4.838;2024-02-26T13:10:46;6.15;;;5.43;;
39370;SDS011;25099;51.946;4.838;2024-02-26T13:13:14;9.07;;;6.20;;
39370;SDS011;25099;51.946;4.838;2024-02-26T13:15:41;8.70;;;5.35;;
39370;SDS011;25099;51.946;4.838;2024-02-26T13:18:10;6.05;;;5.07;;
39370;SDS011;25099;51.946;4.838;2024-02-26T13:20:37;5.63;;;5.05;;
39370;SDS011;25099;51.946;4.838;2024-02-26T13:23:06;6.78;;;5.47;;
39370;SDS011;25099;51.946;4.838;2024-02-26T13:25:36;6.82;;;5.25;;
39370;SDS011;25099;51.946;4.838;2024-02-26T13:28:05;10.60;;;5.60;;
39370;SDS011;25099;51.946;4.838;2024-02-26T13:30:38;5.95;;;5.30;;
39370;SDS011;25099;51.946;4.838;2024-02-26T13:33:07;7.05;;;5.30;;
39370;SDS011;25099;51.946;4.838;2024-02-26T13:35:35;5.25;;;4.75;;
39370;SDS011;25099;51.946;4.838;2024-02-26T13:38:01;5.45;;;4.75;;
39370;SDS011;25099;51.946;4.838;2024-02-26T13:40:27;5.45;;;4.78;;
39370;SDS011;25099;51.946;4.838;2024-02-26T13:42:54;5.95;;;5.35;;
39370;SDS011;25099;51.946;4.838;2024-02-26T13:45:19;7.35;;;5.20;;
39370;SDS011;25099;51.946;4.838;2024-02-26T13:47:45;7.47;;;5.57;;
39370;SDS011;25099;51.946;4.838;2024-02-26T13:50:10;6.95;;;5.18;;
39370;SDS011;25099;51.946;4.838;2024-02-26T13:52:36;6.82;;;5.43;;
39370;SDS011;25099;51.946;4.838;2024-02-26T13:55:02;6.85;;;5.35;;
39370;SDS011;25099;51.946;4.838;2024-02-26T13:57:28;5.40;;;4.57;;
39370;SDS011;25099;51.946;4.838;2024-02-26T13:59:54;5.43;;;4.93;;
39370;SDS011;25099;51.946;4.838;2024-02-26T14:02:20;5.78;;;4.70;;
39370;SDS011;25099;51.946;4.838;2024-02-26T14:04:46;6.35;;;5.22;;
39370;SDS011;25099;51.946;4.838;2024-02-26T14:07:12;5.45;;;4.95;;
39370;SDS011;25099;51.946;4.838;2024-02-26T14:09:38;5.13;;;4.68;;
39370;SDS011;25099;51.946;4.838;2024-02-26T14:12:04;5.28;;;4.78;;
39370;SDS011;25099;51.946;4.838;2024-02-26T14:14:30;6.80;;;4.07;;
39370;SDS011;25099;51.946;4.838;2024-02-26T14:16:58;5.10;;;4.60;;
39370;SDS011;25099;51.946;4.838;2024-02-26T14:19:23;4.95;;;4.38;;
39370;SDS011;25099;51.946;4.838;2024-02-26T14:21:49;5.00;;;4.50;;
39370;SDS011;25099;51.946;4.838;2024-02-26T14:24:14;4.93;;;4.13;;
39370;SDS011;25099;51.946;4.838;2024-02-26T14:26:40;5.53;;;4.95;;
39370;SDS011;25099;51.946;4.838;2024-02-26T14:29:06;5.18;;;4.22;;
39370;SDS011;25099;51.946;4.838;2024-02-26T14:31:32;7.13;;;4.95;;
39370;SDS011;25099;51.946;4.838;2024-02-26T14:33:58;5.53;;;4.70;;
39370;SDS011;25099;51.946;4.838;2024-02-26T14:36:23;5.80;;;4.85;;
39370;SDS011;25099;51.946;4.838;2024-02-26T14:38:49;4.70;;;4.30;;
39370;SDS011;25099;51.946;4.838;2024-02-26T14:41:16;9.02;;;3.95;;
39370;SDS011;25099;51.946;4.838;2024-02-26T14:43:41;4.53;;;4.13;;